Terminal Aerodrome Forecast
Issued by NWS Portland, ME

Home | Current Version | Previous Version | Text Only | Print | Product List | Glossary On
Versions: 1 2 3 4 5 6 7 8 9 10 11 12 13 14
000
FTUS41 KGYX 261348 AAA
TAFCON
TAF AMD
KCON 261348Z 2614/2712 VRB05KT 3SM -SHRA BR BKN050 BKN100
     FM261600 29007KT P6SM FEW250=

USA.gov is the U.S. government's official web portal to all federal, state and local government web resources and services.